Airfield :
LOGIN :

Register | Disclaimer

   EN    FR    IT 

 










Legend :    VFR   Marginal VFR   IFR   Intensive IFR   Very Intensive IFR
Visi :
Ceiling :
>= 8 km
>= 3000ft
5 to 8 km
1000 to 3000 ft
1500m to 5 km
500 to 1000 ft
800 to 1500m
200 to 500 ft
< 800m
< 200 ft
Symbols :   Thunderstorms  Fog  Heavy snow  Heavy precipitations  Wind > 20 kt
SIGMETs :     Misc.  Thunderstorms  Icing  Turbulence  Mountain Waves  Volcanic Ashes







- Airport Elevation : 1273 ft
- IATA code : LJU


LJLJ - Ljubljana

CURRENT METAR :
  • 221200Z 13005KT 8000 -SN FEW010 SCT033 BKN050 01/M02 Q1012 R30/CLRD// NOSIG

EXPIRED METARs :
  • 221130Z 12007KT 8000 -SN FEW010 SCT033 BKN050 00/M02 Q1012 R30/CLRD// NOSIG
  • 221100Z 10008KT 8000 -SN FEW010 SCT033 BKN050 00/M02 Q1012 R30/CLRD// NOSIG
  • 221030Z 10005KT 060V140 8000 -SN FEW010 SCT033 BKN050 00/M02 Q1012 R30/CLRD// NOSIG
  • 221000Z 12007KT 8000 -SN FEW010 SCT030 BKN050 00/M02 Q1012 R30/CLRD// NOSIG
  • 220930Z 12008KT 8000 -SN FEW010 SCT030 BKN050 00/M02 Q1011 R30/CLRD// NOSIG

TAF TAF LJLJ
Valid from the 22 at 12:00 until the 23 at 12:00 UTC


221100Z 2212/2312 12005KT 9999 SCT045 OVC075
TEMPO 2212/2312 12010KT 7000 -SN SCT015 BKN030 OVC060
No reported NOTAMs for that airfield.
1 SIGMET reported for the Ljubljana FIR (LJLA) :
 
Severe turbulence
LJLA SIGMET 4 VALID 221100/221400 LJLJ
LJLA LJUBLJANA FIR SEV TURB FCST SW OF LINE N4536 E01431 - N4606 E01335 SFC/6000FT STNR NC=



MET'MAP, your aeronautical weather chart ! - Copyright ORBIFLY December 2007 - Disclaimer

ORBIFLY MET'MAP TEAM :

Programming & Development : Alexandra Zaïnal
Concept & Development : Baudouin d'Aumeries
Co-Development & Prog : Marc-Olivier Méhu
Technical & hardware support : Manuel Goepfert

Contact : metmap@orbifly.com




SOURCES & CREDITS :

   NOAA